sensor_id;sensor_type;location;lat;lon;timestamp;P1;durP1;ratioP1;P2;durP2;ratioP2
38379;SDS011;38377;47.418;18.882;2023-04-25T00:01:20;1.88;;;1.27;;
38379;SDS011;38377;47.418;18.882;2023-04-25T00:03:49;1.13;;;1.00;;
38379;SDS011;38377;47.418;18.882;2023-04-25T00:06:15;1.73;;;1.30;;
38379;SDS011;38377;47.418;18.882;2023-04-25T00:08:42;1.80;;;1.50;;
38379;SDS011;38377;47.418;18.882;2023-04-25T00:11:08;1.80;;;1.40;;
38379;SDS011;38377;47.418;18.882;2023-04-25T00:13:34;1.65;;;1.42;;
38379;SDS011;38377;47.418;18.882;2023-04-25T00:15:59;1.73;;;1.35;;
38379;SDS011;38377;47.418;18.882;2023-04-25T00:18:25;1.65;;;1.25;;
38379;SDS011;38377;47.418;18.882;2023-04-25T00:20:55;1.80;;;1.60;;
38379;SDS011;38377;47.418;18.882;2023-04-25T00:23:24;1.85;;;1.40;;
38379;SDS011;38377;47.418;18.882;2023-04-25T00:25:50;1.70;;;1.60;;
38379;SDS011;38377;47.418;18.882;2023-04-25T00:28:16;2.15;;;1.13;;
38379;SDS011;38377;47.418;18.882;2023-04-25T00:30:42;3.55;;;1.45;;
38379;SDS011;38377;47.418;18.882;2023-04-25T00:33:08;2.28;;;1.35;;
38379;SDS011;38377;47.418;18.882;2023-04-25T00:35:35;2.15;;;1.42;;
38379;SDS011;38377;47.418;18.882;2023-04-25T00:38:01;2.40;;;1.73;;
38379;SDS011;38377;47.418;18.882;2023-04-25T00:40:27;3.58;;;2.10;;
38379;SDS011;38377;47.418;18.882;2023-04-25T00:42:53;3.63;;;2.40;;
38379;SDS011;38377;47.418;18.882;2023-04-25T00:45:19;3.40;;;2.72;;
38379;SDS011;38377;47.418;18.882;2023-04-25T00:47:45;4.97;;;3.08;;
38379;SDS011;38377;47.418;18.882;2023-04-25T00:50:15;4.00;;;2.92;;
38379;SDS011;38377;47.418;18.882;2023-04-25T00:52:42;3.47;;;2.72;;
38379;SDS011;38377;47.418;18.882;2023-04-25T00:55:09;3.58;;;3.20;;
38379;SDS011;38377;47.418;18.882;2023-04-25T00:57:36;3.60;;;2.72;;
38379;SDS011;38377;47.418;18.882;2023-04-25T01:00:03;3.15;;;2.70;;
38379;SDS011;38377;47.418;18.882;2023-04-25T01:02:30;4.13;;;2.92;;
38379;SDS011;38377;47.418;18.882;2023-04-25T01:05:00;3.47;;;3.17;;
38379;SDS011;38377;47.418;18.882;2023-04-25T01:07:27;3.20;;;2.90;;
38379;SDS011;38377;47.418;18.882;2023-04-25T01:09:52;3.60;;;2.90;;
38379;SDS011;38377;47.418;18.882;2023-04-25T01:12:18;3.55;;;2.70;;
38379;SDS011;38377;47.418;18.882;2023-04-25T01:14:44;4.03;;;2.40;;
38379;SDS011;38377;47.418;18.882;2023-04-25T01:17:11;4.13;;;2.75;;
38379;SDS011;38377;47.418;18.882;2023-04-25T01:19:37;2.50;;;2.30;;
38379;SDS011;38377;47.418;18.882;2023-04-25T01:22:03;3.35;;;2.40;;
38379;SDS011;38377;47.418;18.882;2023-04-25T01:24:30;2.47;;;2.13;;
38379;SDS011;38377;47.418;18.882;2023-04-25T01:26:57;2.47;;;1.92;;
38379;SDS011;38377;47.418;18.882;2023-04-25T01:29:25;2.50;;;2.20;;
38379;SDS011;38377;47.418;18.882;2023-04-25T01:31:52;5.05;;;2.25;;
38379;SDS011;38377;47.418;18.882;2023-04-25T01:34:17;3.60;;;2.30;;
38379;SDS011;38377;47.418;18.882;2023-04-25T01:36:44;4.53;;;2.40;;
38379;SDS011;38377;47.418;18.882;2023-04-25T01:39:09;5.32;;;3.08;;
38379;SDS011;38377;47.418;18.882;2023-04-25T01:41:35;3.40;;;2.33;;
38379;SDS011;38377;47.418;18.882;2023-04-25T01:44:01;2.53;;;2.05;;
38379;SDS011;38377;47.418;18.882;2023-04-25T01:46:28;3.08;;;2.58;;
38379;SDS011;38377;47.418;18.882;2023-04-25T01:48:55;2.55;;;2.35;;
38379;SDS011;38377;47.418;18.882;2023-04-25T01:51:21;4.35;;;2.30;;
38379;SDS011;38377;47.418;18.882;2023-04-25T01:53:49;2.95;;;2.13;;
38379;SDS011;38377;47.418;18.882;2023-04-25T01:56:15;3.30;;;2.67;;
38379;SDS011;38377;47.418;18.882;2023-04-25T01:58:42;3.47;;;2.80;;
38379;SDS011;38377;47.418;18.882;2023-04-25T02:01:08;3.55;;;3.10;;
38379;SDS011;38377;47.418;18.882;2023-04-25T02:03:34;2.92;;;2.40;;
38379;SDS011;38377;47.418;18.882;2023-04-25T02:06:04;3.35;;;2.72;;
38379;SDS011;38377;47.418;18.882;2023-04-25T02:08:30;2.33;;;2.10;;
38379;SDS011;38377;47.418;18.882;2023-04-25T02:10:57;2.65;;;2.22;;
38379;SDS011;38377;47.418;18.882;2023-04-25T02:13:22;2.65;;;2.45;;
38379;SDS011;38377;47.418;18.882;2023-04-25T02:15:48;2.42;;;2.22;;
38379;SDS011;38377;47.418;18.882;2023-04-25T02:18:14;4.55;;;3.00;;
38379;SDS011;38377;47.418;18.882;2023-04-25T02:20:41;3.45;;;2.08;;
38379;SDS011;38377;47.418;18.882;2023-04-25T02:23:07;3.20;;;2.60;;
38379;SDS011;38377;47.418;18.882;2023-04-25T02:25:33;3.28;;;2.60;;
38379;SDS011;38377;47.418;18.882;2023-04-25T02:31:17;3.15;;;2.58;;
38379;SDS011;38377;47.418;18.882;2023-04-25T02:33:43;4.53;;;2.60;;
38379;SDS011;38377;47.418;18.882;2023-04-25T02:36:09;2.63;;;2.22;;
38379;SDS011;38377;47.418;18.882;2023-04-25T02:38:35;5.03;;;3.00;;
38379;SDS011;38377;47.418;18.882;2023-04-25T02:41:01;2.78;;;2.38;;
38379;SDS011;38377;47.418;18.882;2023-04-25T02:43:26;4.40;;;2.75;;
38379;SDS011;38377;47.418;18.882;2023-04-25T02:45:52;3.05;;;2.40;;
38379;SDS011;38377;47.418;18.882;2023-04-25T02:48:18;2.85;;;2.53;;
38379;SDS011;38377;47.418;18.882;2023-04-25T02:50:44;2.53;;;2.33;;
38379;SDS011;38377;47.418;18.882;2023-04-25T02:53:10;3.67;;;2.75;;
38379;SDS011;38377;47.418;18.882;2023-04-25T02:55:36;4.38;;;3.15;;
38379;SDS011;38377;47.418;18.882;2023-04-25T02:58:02;2.95;;;2.42;;
38379;SDS011;38377;47.418;18.882;2023-04-25T03:00:27;4.03;;;3.00;;
38379;SDS011;38377;47.418;18.882;2023-04-25T03:02:54;4.13;;;2.70;;
38379;SDS011;38377;47.418;18.882;2023-04-25T03:05:20;2.40;;;2.20;;
38379;SDS011;38377;47.418;18.882;2023-04-25T03:07:46;2.97;;;2.65;;
38379;SDS011;38377;47.418;18.882;2023-04-25T03:10:11;2.53;;;2.33;;
38379;SDS011;38377;47.418;18.882;2023-04-25T03:12:38;3.78;;;2.80;;
38379;SDS011;38377;47.418;18.882;2023-04-25T03:15:03;3.40;;;2.97;;
38379;SDS011;38377;47.418;18.882;2023-04-25T03:17:30;3.65;;;2.53;;
38379;SDS011;38377;47.418;18.882;2023-04-25T03:19:56;3.13;;;2.83;;
38379;SDS011;38377;47.418;18.882;2023-04-25T03:22:22;2.90;;;2.58;;
38379;SDS011;38377;47.418;18.882;2023-04-25T03:24:49;3.85;;;3.00;;
38379;SDS011;38377;47.418;18.882;2023-04-25T03:27:15;2.70;;;2.50;;
38379;SDS011;38377;47.418;18.882;2023-04-25T03:29:41;2.85;;;2.42;;
38379;SDS011;38377;47.418;18.882;2023-04-25T03:32:07;4.63;;;2.60;;
38379;SDS011;38377;47.418;18.882;2023-04-25T03:34:33;3.47;;;3.15;;
38379;SDS011;38377;47.418;18.882;2023-04-25T03:36:59;4.40;;;2.67;;
38379;SDS011;38377;47.418;18.882;2023-04-25T03:39:28;4.47;;;2.75;;
38379;SDS011;38377;47.418;18.882;2023-04-25T03:41:55;2.78;;;2.50;;
38379;SDS011;38377;47.418;18.882;2023-04-25T03:44:22;3.58;;;2.70;;
38379;SDS011;38377;47.418;18.882;2023-04-25T03:46:49;5.47;;;2.97;;
38379;SDS011;38377;47.418;18.882;2023-04-25T03:49:15;3.13;;;2.83;;
38379;SDS011;38377;47.418;18.882;2023-04-25T03:51:41;3.58;;;2.90;;
38379;SDS011;38377;47.418;18.882;2023-04-25T03:54:09;2.90;;;2.60;;
38379;SDS011;38377;47.418;18.882;2023-04-25T03:56:40;3.25;;;2.65;;
38379;SDS011;38377;47.418;18.882;2023-04-25T03:59:07;3.38;;;2.80;;
38379;SDS011;38377;47.418;18.882;2023-04-25T04:01:33;3.13;;;2.70;;
38379;SDS011;38377;47.418;18.882;2023-04-25T04:03:58;3.22;;;2.90;;
38379;SDS011;38377;47.418;18.882;2023-04-25T04:06:27;4.82;;;2.85;;
38379;SDS011;38377;47.418;18.882;2023-04-25T04:09:02;4.53;;;2.92;;
38379;SDS011;38377;47.418;18.882;2023-04-25T04:11:36;3.75;;;2.85;;
38379;SDS011;38377;47.418;18.882;2023-04-25T04:14:06;4.82;;;2.75;;
38379;SDS011;38377;47.418;18.882;2023-04-25T04:16:34;3.58;;;2.95;;
38379;SDS011;38377;47.418;18.882;2023-04-25T04:19:00;4.15;;;3.20;;
38379;SDS011;38377;47.418;18.882;2023-04-25T04:21:26;3.85;;;3.42;;
38379;SDS011;38377;47.418;18.882;2023-04-25T04:23:52;3.53;;;3.17;;
38379;SDS011;38377;47.418;18.882;2023-04-25T04:26:19;4.38;;;3.38;;
38379;SDS011;38377;47.418;18.882;2023-04-25T04:28:48;4.35;;;3.83;;
38379;SDS011;38377;47.418;18.882;2023-04-25T04:31:15;4.07;;;3.50;;
38379;SDS011;38377;47.418;18.882;2023-04-25T04:33:44;4.15;;;3.75;;
38379;SDS011;38377;47.418;18.882;2023-04-25T04:39:00;5.80;;;4.18;;
38379;SDS011;38377;47.418;18.882;2023-04-25T04:41:27;5.80;;;4.40;;
38379;SDS011;38377;47.418;18.882;2023-04-25T04:43:52;5.95;;;5.28;;
38379;SDS011;38377;47.418;18.882;2023-04-25T04:46:20;5.22;;;4.40;;
38379;SDS011;38377;47.418;18.882;2023-04-25T04:48:46;6.10;;;4.45;;
38379;SDS011;38377;47.418;18.882;2023-04-25T04:51:12;4.93;;;4.35;;
38379;SDS011;38377;47.418;18.882;2023-04-25T04:53:37;5.07;;;4.40;;
38379;SDS011;38377;47.418;18.882;2023-04-25T04:56:03;6.65;;;5.13;;
38379;SDS011;38377;47.418;18.882;2023-04-25T04:58:29;6.00;;;5.18;;
38379;SDS011;38377;47.418;18.882;2023-04-25T05:00:55;5.07;;;4.57;;
38379;SDS011;38377;47.418;18.882;2023-04-25T05:03:21;6.07;;;5.18;;
38379;SDS011;38377;47.418;18.882;2023-04-25T05:05:47;5.55;;;4.88;;
38379;SDS011;38377;47.418;18.882;2023-04-25T05:08:13;7.13;;;5.38;;
38379;SDS011;38377;47.418;18.882;2023-04-25T05:10:38;6.35;;;5.10;;
38379;SDS011;38377;47.418;18.882;2023-04-25T05:13:04;6.40;;;5.25;;
38379;SDS011;38377;47.418;18.882;2023-04-25T05:15:30;7.65;;;5.95;;
38379;SDS011;38377;47.418;18.882;2023-04-25T05:17:55;10.23;;;6.38;;
38379;SDS011;38377;47.418;18.882;2023-04-25T05:20:21;7.32;;;5.90;;
38379;SDS011;38377;47.418;18.882;2023-04-25T05:22:47;7.00;;;6.00;;
38379;SDS011;38377;47.418;18.882;2023-04-25T05:25:12;8.55;;;6.07;;
38379;SDS011;38377;47.418;18.882;2023-04-25T05:27:41;7.35;;;6.55;;
38379;SDS011;38377;47.418;18.882;2023-04-25T05:30:07;7.40;;;6.15;;
38379;SDS011;38377;47.418;18.882;2023-04-25T05:32:34;7.13;;;5.55;;
38379;SDS011;38377;47.418;18.882;2023-04-25T05:34:59;8.70;;;7.18;;
38379;SDS011;38377;47.418;18.882;2023-04-25T05:37:25;8.88;;;6.53;;
38379;SDS011;38377;47.418;18.882;2023-04-25T05:39:51;7.65;;;6.35;;
38379;SDS011;38377;47.418;18.882;2023-04-25T05:42:17;7.97;;;6.85;;
38379;SDS011;38377;47.418;18.882;2023-04-25T05:44:42;8.55;;;6.88;;
38379;SDS011;38377;47.418;18.882;2023-04-25T05:47:08;10.15;;;7.38;;
38379;SDS011;38377;47.418;18.882;2023-04-25T05:49:34;10.85;;;8.68;;
38379;SDS011;38377;47.418;18.882;2023-04-25T05:51:59;12.35;;;9.20;;
38379;SDS011;38377;47.418;18.882;2023-04-25T05:54:25;8.25;;;6.82;;
38379;SDS011;38377;47.418;18.882;2023-04-25T05:56:51;10.57;;;7.30;;
38379;SDS011;38377;47.418;18.882;2023-04-25T05:59:16;7.25;;;6.30;;
38379;SDS011;38377;47.418;18.882;2023-04-25T06:01:42;8.02;;;6.95;;
38379;SDS011;38377;47.418;18.882;2023-04-25T06:04:08;6.35;;;5.70;;
38379;SDS011;38377;47.418;18.882;2023-04-25T06:06:33;7.20;;;6.10;;
38379;SDS011;38377;47.418;18.882;2023-04-25T06:08:59;8.15;;;6.53;;
38379;SDS011;38377;47.418;18.882;2023-04-25T06:11:25;6.70;;;5.63;;
38379;SDS011;38377;47.418;18.882;2023-04-25T06:13:51;7.68;;;5.97;;
38379;SDS011;38377;47.418;18.882;2023-04-25T06:16:16;7.05;;;5.45;;
38379;SDS011;38377;47.418;18.882;2023-04-25T06:18:42;6.72;;;5.32;;
38379;SDS011;38377;47.418;18.882;2023-04-25T06:21:08;5.57;;;4.43;;
38379;SDS011;38377;47.418;18.882;2023-04-25T06:23:33;5.97;;;4.97;;
38379;SDS011;38377;47.418;18.882;2023-04-25T06:25:59;5.93;;;5.20;;
38379;SDS011;38377;47.418;18.882;2023-04-25T06:28:25;5.97;;;5.07;;
38379;SDS011;38377;47.418;18.882;2023-04-25T06:30:50;5.57;;;4.75;;
38379;SDS011;38377;47.418;18.882;2023-04-25T06:33:16;6.15;;;5.03;;
38379;SDS011;38377;47.418;18.882;2023-04-25T06:35:42;5.43;;;4.82;;
38379;SDS011;38377;47.418;18.882;2023-04-25T06:38:09;6.82;;;4.57;;
38379;SDS011;38377;47.418;18.882;2023-04-25T06:40:35;5.07;;;4.57;;
38379;SDS011;38377;47.418;18.882;2023-04-25T06:43:01;4.68;;;4.18;;
38379;SDS011;38377;47.418;18.882;2023-04-25T06:45:26;5.68;;;5.07;;
38379;SDS011;38377;47.418;18.882;2023-04-25T06:47:52;5.90;;;4.68;;
38379;SDS011;38377;47.418;18.882;2023-04-25T06:50:18;4.43;;;4.03;;
38379;SDS011;38377;47.418;18.882;2023-04-25T06:52:43;4.75;;;4.30;;
38379;SDS011;38377;47.418;18.882;2023-04-25T06:55:12;5.15;;;4.40;;
38379;SDS011;38377;47.418;18.882;2023-04-25T06:57:37;5.45;;;4.40;;
38379;SDS011;38377;47.418;18.882;2023-04-25T07:00:03;4.90;;;4.43;;
38379;SDS011;38377;47.418;18.882;2023-04-25T07:02:36;5.75;;;4.35;;
38379;SDS011;38377;47.418;18.882;2023-04-25T07:05:02;5.07;;;4.28;;
38379;SDS011;38377;47.418;18.882;2023-04-25T07:07:29;4.75;;;4.25;;
38379;SDS011;38377;47.418;18.882;2023-04-25T07:09:55;5.40;;;4.88;;
38379;SDS011;38377;47.418;18.882;2023-04-25T07:12:21;5.15;;;4.07;;
38379;SDS011;38377;47.418;18.882;2023-04-25T07:14:47;4.97;;;4.15;;
38379;SDS011;38377;47.418;18.882;2023-04-25T07:17:13;4.75;;;4.03;;
38379;SDS011;38377;47.418;18.882;2023-04-25T07:19:38;4.75;;;4.25;;
38379;SDS011;38377;47.418;18.882;2023-04-25T07:22:05;3.97;;;3.55;;
38379;SDS011;38377;47.418;18.882;2023-04-25T07:24:31;4.25;;;3.78;;
38379;SDS011;38377;47.418;18.882;2023-04-25T07:26:57;4.50;;;4.07;;
38379;SDS011;38377;47.418;18.882;2023-04-25T07:29:23;8.45;;;4.30;;
38379;SDS011;38377;47.418;18.882;2023-04-25T07:31:49;4.32;;;3.92;;
38379;SDS011;38377;47.418;18.882;2023-04-25T07:34:15;4.55;;;3.22;;
38379;SDS011;38377;47.418;18.882;2023-04-25T07:36:40;4.72;;;3.65;;
38379;SDS011;38377;47.418;18.882;2023-04-25T07:39:06;3.50;;;3.20;;
38379;SDS011;38377;47.418;18.882;2023-04-25T07:41:35;4.05;;;3.60;;
38379;SDS011;38377;47.418;18.882;2023-04-25T07:44:01;3.70;;;3.40;;
38379;SDS011;38377;47.418;18.882;2023-04-25T07:46:27;3.83;;;3.42;;
38379;SDS011;38377;47.418;18.882;2023-04-25T07:48:52;4.70;;;4.25;;
38379;SDS011;38377;47.418;18.882;2023-04-25T07:51:18;4.47;;;3.33;;
38379;SDS011;38377;47.418;18.882;2023-04-25T07:53:45;4.03;;;3.63;;
38379;SDS011;38377;47.418;18.882;2023-04-25T07:56:11;4.45;;;3.40;;
38379;SDS011;38377;47.418;18.882;2023-04-25T07:58:36;4.10;;;3.70;;
38379;SDS011;38377;47.418;18.882;2023-04-25T08:01:02;4.30;;;3.78;;
38379;SDS011;38377;47.418;18.882;2023-04-25T08:03:28;3.42;;;3.10;;
38379;SDS011;38377;47.418;18.882;2023-04-25T08:05:54;4.03;;;3.60;;
38379;SDS011;38377;47.418;18.882;2023-04-25T08:08:20;3.72;;;3.35;;
38379;SDS011;38377;47.418;18.882;2023-04-25T08:10:46;3.67;;;3.20;;
38379;SDS011;38377;47.418;18.882;2023-04-25T08:13:13;3.60;;;3.30;;
38379;SDS011;38377;47.418;18.882;2023-04-25T08:15:39;4.32;;;3.42;;
38379;SDS011;38377;47.418;18.882;2023-04-25T08:18:05;3.67;;;3.33;;
38379;SDS011;38377;47.418;18.882;2023-04-25T08:20:30;4.38;;;3.75;;
38379;SDS011;38377;47.418;18.882;2023-04-25T08:22:56;4.43;;;3.42;;
38379;SDS011;38377;47.418;18.882;2023-04-25T08:25:22;4.50;;;3.70;;
38379;SDS011;38377;47.418;18.882;2023-04-25T08:27:50;5.55;;;3.63;;
38379;SDS011;38377;47.418;18.882;2023-04-25T08:30:16;6.45;;;4.40;;
38379;SDS011;38377;47.418;18.882;2023-04-25T08:32:42;4.88;;;3.65;;
38379;SDS011;38377;47.418;18.882;2023-04-25T08:35:07;4.72;;;3.83;;
38379;SDS011;38377;47.418;18.882;2023-04-25T08:37:34;6.32;;;3.92;;
38379;SDS011;38377;47.418;18.882;2023-04-25T08:39:59;5.18;;;3.97;;
38379;SDS011;38377;47.418;18.882;2023-04-25T08:42:26;4.22;;;3.80;;
38379;SDS011;38377;47.418;18.882;2023-04-25T08:44:53;4.95;;;3.63;;
38379;SDS011;38377;47.418;18.882;2023-04-25T08:47:21;4.18;;;3.78;;
38379;SDS011;38377;47.418;18.882;2023-04-25T08:49:48;4.75;;;4.20;;
38379;SDS011;38377;47.418;18.882;2023-04-25T08:52:21;4.68;;;4.05;;
38379;SDS011;38377;47.418;18.882;2023-04-25T08:54:48;3.53;;;3.22;;
38379;SDS011;38377;47.418;18.882;2023-04-25T08:57:14;5.40;;;4.25;;
38379;SDS011;38377;47.418;18.882;2023-04-25T08:59:40;5.70;;;4.13;;
38379;SDS011;38377;47.418;18.882;2023-04-25T09:02:10;4.22;;;3.83;;
38379;SDS011;38377;47.418;18.882;2023-04-25T09:04:42;4.30;;;3.90;;
38379;SDS011;38377;47.418;18.882;2023-04-25T09:07:09;4.65;;;4.13;;
38379;SDS011;38377;47.418;18.882;2023-04-25T09:09:35;4.78;;;4.38;;
38379;SDS011;38377;47.418;18.882;2023-04-25T09:12:05;6.07;;;4.43;;
38379;SDS011;38377;47.418;18.882;2023-04-25T09:14:30;5.50;;;3.97;;
38379;SDS011;38377;47.418;18.882;2023-04-25T09:21:53;4.15;;;3.75;;
38379;SDS011;38377;47.418;18.882;2023-04-25T09:24:39;4.00;;;3.65;;
38379;SDS011;38377;47.418;18.882;2023-04-25T09:27:10;3.47;;;3.17;;
38379;SDS011;38377;47.418;18.882;2023-04-25T09:29:38;3.08;;;2.78;;
38379;SDS011;38377;47.418;18.882;2023-04-25T09:32:16;4.38;;;3.22;;
38379;SDS011;38377;47.418;18.882;2023-04-25T09:34:52;3.50;;;3.08;;
38379;SDS011;38377;47.418;18.882;2023-04-25T09:39:47;3.60;;;2.97;;
38379;SDS011;38377;47.418;18.882;2023-04-25T09:42:14;2.97;;;2.75;;
38379;SDS011;38377;47.418;18.882;2023-04-25T09:44:41;3.90;;;3.28;;
38379;SDS011;38377;47.418;18.882;2023-04-25T09:47:10;3.17;;;2.90;;
38379;SDS011;38377;47.418;18.882;2023-04-25T09:49:39;3.80;;;3.50;;
38379;SDS011;38377;47.418;18.882;2023-04-25T09:52:07;3.10;;;2.83;;
38379;SDS011;38377;47.418;18.882;2023-04-25T09:54:33;3.25;;;2.95;;
38379;SDS011;38377;47.418;18.882;2023-04-25T09:57:00;3.75;;;3.00;;
38379;SDS011;38377;47.418;18.882;2023-04-25T09:59:35;3.40;;;3.10;;
38379;SDS011;38377;47.418;18.882;2023-04-25T10:02:06;4.55;;;3.90;;
38379;SDS011;38377;47.418;18.882;2023-04-25T10:04:33;3.13;;;2.83;;
38379;SDS011;38377;47.418;18.882;2023-04-25T10:07:01;3.40;;;3.10;;
38379;SDS011;38377;47.418;18.882;2023-04-25T10:09:28;2.80;;;2.60;;
38379;SDS011;38377;47.418;18.882;2023-04-25T10:11:58;3.08;;;2.67;;
38379;SDS011;38377;47.418;18.882;2023-04-25T10:14:25;2.65;;;2.40;;
38379;SDS011;38377;47.418;18.882;2023-04-25T10:16:51;1.95;;;1.77;;
38379;SDS011;38377;47.418;18.882;2023-04-25T10:19:20;2.17;;;1.90;;
38379;SDS011;38377;47.418;18.882;2023-04-25T10:21:48;1.63;;;1.52;;
38379;SDS011;38377;47.418;18.882;2023-04-25T10:24:17;1.38;;;1.27;;
38379;SDS011;38377;47.418;18.882;2023-04-25T10:26:44;2.95;;;1.77;;
38379;SDS011;38377;47.418;18.882;2023-04-25T10:29:10;1.52;;;1.30;;
38379;SDS011;38377;47.418;18.882;2023-04-25T10:31:44;1.70;;;1.60;;
38379;SDS011;38377;47.418;18.882;2023-04-25T10:34:11;2.40;;;2.10;;
38379;SDS011;38377;47.418;18.882;2023-04-25T10:36:37;2.20;;;1.75;;
38379;SDS011;38377;47.418;18.882;2023-04-25T10:39:06;1.75;;;1.63;;
38379;SDS011;38377;47.418;18.882;2023-04-25T10:41:47;2.00;;;1.80;;
38379;SDS011;38377;47.418;18.882;2023-04-25T10:44:16;2.30;;;2.00;;
38379;SDS011;38377;47.418;18.882;2023-04-25T10:46:43;1.65;;;1.30;;
38379;SDS011;38377;47.418;18.882;2023-04-25T10:49:10;1.58;;;1.02;;
38379;SDS011;38377;47.418;18.882;2023-04-25T10:51:57;0.73;;;0.70;;
38379;SDS011;38377;47.418;18.882;2023-04-25T10:54:52;1.20;;;1.00;;
38379;SDS011;38377;47.418;18.882;2023-04-25T11:00:00;4.55;;;4.00;;
38379;SDS011;38377;47.418;18.882;2023-04-25T11:02:36;0.87;;;0.77;;
38379;SDS011;38377;47.418;18.882;2023-04-25T11:05:03;1.10;;;0.75;;
38379;SDS011;38377;47.418;18.882;2023-04-25T11:12:36;1.95;;;0.80;;
38379;SDS011;38377;47.418;18.882;2023-04-25T11:15:04;1.92;;;1.00;;
38379;SDS011;38377;47.418;18.882;2023-04-25T11:17:32;1.83;;;0.85;;
38379;SDS011;38377;47.418;18.882;2023-04-25T11:19:58;1.25;;;0.70;;
38379;SDS011;38377;47.418;18.882;2023-04-25T11:22:25;0.60;;;0.50;;
38379;SDS011;38377;47.418;18.882;2023-04-25T11:24:52;1.20;;;0.85;;
38379;SDS011;38377;47.418;18.882;2023-04-25T11:27:18;1.42;;;0.82;;
38379;SDS011;38377;47.418;18.882;2023-04-25T11:29:44;1.02;;;0.70;;
38379;SDS011;38377;47.418;18.882;2023-04-25T11:32:10;2.22;;;0.88;;
38379;SDS011;38377;47.418;18.882;2023-04-25T11:34:35;1.23;;;1.02;;
38379;SDS011;38377;47.418;18.882;2023-04-25T11:37:01;3.15;;;0.88;;
38379;SDS011;38377;47.418;18.882;2023-04-25T11:39:28;1.45;;;1.17;;
38379;SDS011;38377;47.418;18.882;2023-04-25T11:41:54;2.40;;;1.10;;
38379;SDS011;38377;47.418;18.882;2023-04-25T11:44:20;3.35;;;1.20;;
38379;SDS011;38377;47.418;18.882;2023-04-25T11:46:47;1.60;;;1.20;;
38379;SDS011;38377;47.418;18.882;2023-04-25T11:49:13;1.88;;;1.35;;
38379;SDS011;38377;47.418;18.882;2023-04-25T11:51:40;1.13;;;1.00;;
38379;SDS011;38377;47.418;18.882;2023-04-25T11:54:11;1.15;;;0.93;;
38379;SDS011;38377;47.418;18.882;2023-04-25T11:56:37;1.27;;;1.17;;
38379;SDS011;38377;47.418;18.882;2023-04-25T11:59:07;1.95;;;1.23;;
38379;SDS011;38377;47.418;18.882;2023-04-25T12:06:54;1.85;;;1.05;;
38379;SDS011;38377;47.418;18.882;2023-04-25T12:09:30;2.00;;;1.77;;
38379;SDS011;38377;47.418;18.882;2023-04-25T12:11:57;2.00;;;1.40;;
38379;SDS011;38377;47.418;18.882;2023-04-25T12:14:28;1.40;;;1.27;;
38379;SDS011;38377;47.418;18.882;2023-04-25T12:16:55;1.02;;;0.93;;
38379;SDS011;38377;47.418;18.882;2023-04-25T12:19:23;1.25;;;1.00;;
38379;SDS011;38377;47.418;18.882;2023-04-25T12:21:50;3.05;;;1.40;;
38379;SDS011;38377;47.418;18.882;2023-04-25T12:24:17;3.13;;;1.13;;
38379;SDS011;38377;47.418;18.882;2023-04-25T12:26:52;1.15;;;0.90;;
38379;SDS011;38377;47.418;18.882;2023-04-25T12:29:25;1.90;;;1.50;;
38379;SDS011;38377;47.418;18.882;2023-04-25T12:31:52;2.05;;;1.20;;
38379;SDS011;38377;47.418;18.882;2023-04-25T12:34:19;1.83;;;1.52;;
38379;SDS011;38377;47.418;18.882;2023-04-25T12:36:46;2.35;;;1.70;;
38379;SDS011;38377;47.418;18.882;2023-04-25T12:39:15;2.65;;;1.60;;
38379;SDS011;38377;47.418;18.882;2023-04-25T12:41:42;5.35;;;1.75;;
38379;SDS011;38377;47.418;18.882;2023-04-25T12:44:08;1.48;;;1.13;;
38379;SDS011;38377;47.418;18.882;2023-04-25T12:46:34;1.75;;;1.20;;
38379;SDS011;38377;47.418;18.882;2023-04-25T12:49:01;1.20;;;0.98;;
38379;SDS011;38377;47.418;18.882;2023-04-25T12:51:28;1.70;;;1.35;;
38379;SDS011;38377;47.418;18.882;2023-04-25T12:53:54;1.83;;;1.27;;
38379;SDS011;38377;47.418;18.882;2023-04-25T12:56:20;1.48;;;1.38;;
38379;SDS011;38377;47.418;18.882;2023-04-25T12:58:46;1.27;;;1.17;;
38379;SDS011;38377;47.418;18.882;2023-04-25T13:01:13;1.60;;;1.20;;
38379;SDS011;38377;47.418;18.882;2023-04-25T13:03:39;3.17;;;1.30;;
38379;SDS011;38377;47.418;18.882;2023-04-25T13:06:06;1.30;;;1.20;;
38379;SDS011;38377;47.418;18.882;2023-04-25T13:08:32;1.30;;;1.15;;
38379;SDS011;38377;47.418;18.882;2023-04-25T13:10:58;1.35;;;1.25;;
38379;SDS011;38377;47.418;18.882;2023-04-25T13:13:23;1.75;;;1.50;;
38379;SDS011;38377;47.418;18.882;2023-04-25T13:15:49;1.63;;;1.17;;
38379;SDS011;38377;47.418;18.882;2023-04-25T13:18:15;1.85;;;1.20;;
38379;SDS011;38377;47.418;18.882;2023-04-25T13:20:41;1.80;;;1.17;;
38379;SDS011;38377;47.418;18.882;2023-04-25T13:23:06;10.00;;;7.80;;
38379;SDS011;38377;47.418;18.882;2023-04-25T13:25:32;5.93;;;4.78;;
38379;SDS011;38377;47.418;18.882;2023-04-25T13:27:58;5.35;;;3.17;;
38379;SDS011;38377;47.418;18.882;2023-04-25T13:30:23;2.28;;;1.60;;
38379;SDS011;38377;47.418;18.882;2023-04-25T13:32:49;2.75;;;1.65;;
38379;SDS011;38377;47.418;18.882;2023-04-25T13:35:14;1.98;;;1.40;;
38379;SDS011;38377;47.418;18.882;2023-04-25T13:37:41;2.03;;;1.00;;
38379;SDS011;38377;47.418;18.882;2023-04-25T13:40:08;2.00;;;1.13;;
38379;SDS011;38377;47.418;18.882;2023-04-25T13:42:36;1.80;;;1.25;;
38379;SDS011;38377;47.418;18.882;2023-04-25T13:45:02;2.63;;;1.65;;
38379;SDS011;38377;47.418;18.882;2023-04-25T13:47:29;4.03;;;1.65;;
38379;SDS011;38377;47.418;18.882;2023-04-25T13:49:55;1.75;;;1.52;;
38379;SDS011;38377;47.418;18.882;2023-04-25T13:52:21;2.42;;;1.50;;
38379;SDS011;38377;47.418;18.882;2023-04-25T13:54:46;2.28;;;1.60;;
38379;SDS011;38377;47.418;18.882;2023-04-25T13:57:12;2.42;;;1.75;;
38379;SDS011;38377;47.418;18.882;2023-04-25T13:59:38;5.85;;;1.63;;
38379;SDS011;38377;47.418;18.882;2023-04-25T14:02:06;1.60;;;1.50;;
38379;SDS011;38377;47.418;18.882;2023-04-25T14:04:32;2.35;;;1.50;;
38379;SDS011;38377;47.418;18.882;2023-04-25T14:06:58;2.35;;;1.30;;
38379;SDS011;38377;47.418;18.882;2023-04-25T14:09:23;1.38;;;1.15;;
38379;SDS011;38377;47.418;18.882;2023-04-25T14:11:53;1.60;;;1.15;;
38379;SDS011;38377;47.418;18.882;2023-04-25T14:14:20;1.92;;;1.50;;
38379;SDS011;38377;47.418;18.882;2023-04-25T14:16:47;1.98;;;1.52;;
38379;SDS011;38377;47.418;18.882;2023-04-25T14:19:14;2.35;;;1.85;;
38379;SDS011;38377;47.418;18.882;2023-04-25T14:21:40;1.55;;;1.23;;
38379;SDS011;38377;47.418;18.882;2023-04-25T14:24:06;2.35;;;1.60;;
38379;SDS011;38377;47.418;18.882;2023-04-25T14:26:35;1.40;;;1.27;;
38379;SDS011;38377;47.418;18.882;2023-04-25T14:29:01;2.17;;;1.20;;
38379;SDS011;38377;47.418;18.882;2023-04-25T14:31:28;3.50;;;1.40;;
38379;SDS011;38377;47.418;18.882;2023-04-25T14:33:54;1.38;;;1.27;;
38379;SDS011;38377;47.418;18.882;2023-04-25T14:36:20;1.55;;;1.30;;
38379;SDS011;38377;47.418;18.882;2023-04-25T14:38:46;2.05;;;1.58;;
38379;SDS011;38377;47.418;18.882;2023-04-25T14:41:12;1.30;;;1.20;;
38379;SDS011;38377;47.418;18.882;2023-04-25T14:43:37;2.63;;;1.63;;
38379;SDS011;38377;47.418;18.882;2023-04-25T14:46:05;3.00;;;1.40;;
38379;SDS011;38377;47.418;18.882;2023-04-25T14:48:31;2.80;;;1.67;;
38379;SDS011;38377;47.418;18.882;2023-04-25T14:50:58;1.40;;;1.30;;
38379;SDS011;38377;47.418;18.882;2023-04-25T14:53:25;2.28;;;1.60;;
38379;SDS011;38377;47.418;18.882;2023-04-25T14:55:51;2.13;;;1.27;;
38379;SDS011;38377;47.418;18.882;2023-04-25T14:58:17;2.15;;;1.73;;